Time;durP1;ratioP1;P1;durP2;ratioP2;P2;SDS_P1;SDS_P2;PMS_P1;PMS_P2;Temp;Humidity;BMP_temperature;BMP_pressure;BME280_temperature;BME280_humidity;BME280_pressure;Samples;Min_cycle;Max_cycle;Signal;HPM_P1;HPM_P2
2022/01/30 00:01:03;;;;;;;28.13;5.97;;;8.80;99.90;;;;;;5117122;27;20031;-72
2022/01/30 00:03:29;;;;;;;22.90;5.03;;;8.80;99.90;;;;;;5120871;27;20031;-71
2022/01/30 00:05:55;;;;;;;37.85;7.35;;;8.80;99.90;;;;;;5119975;27;20110;-71
2022/01/30 00:08:20;;;;;;;26.60;5.05;;;8.80;99.90;;;;;;5124133;27;20491;-72
2022/01/30 00:10:52;;;;;;;31.38;5.20;;;8.80;99.90;;;;;;5122990;27;20020;-71
2022/01/30 00:13:19;;;;;;;30.67;5.55;;;8.70;99.90;;;;;;5124162;27;20084;-71
2022/01/30 00:15:51;;;;;;;34.90;5.88;;;8.80;99.90;;;;;;5116385;27;20026;-71
2022/01/30 00:22:16;;;;;;;22.85;4.70;;;8.70;99.90;;;;;;5120970;27;20034;-72
2022/01/30 00:24:02;;;;;;;27.98;5.68;;;8.70;99.90;;;;;;5112795;27;20032;-71
2022/01/30 00:26:32;;;;;;;32.50;6.40;;;8.70;99.90;;;;;;5128866;27;20379;-71
2022/01/30 00:28:58;;;;;;;26.27;5.38;;;8.70;99.90;;;;;;5123467;27;20467;-71
2022/01/30 00:31:25;;;;;;;25.80;4.78;;;8.60;99.90;;;;;;5121104;27;20027;-72
2022/01/30 00:33:52;;;;;;;22.80;5.15;;;8.60;99.90;;;;;;5122213;27;20019;-73
2022/01/30 00:36:17;;;;;;;23.98;4.88;;;8.60;99.90;;;;;;5125852;27;20033;-72
2022/01/30 00:38:43;;;;;;;28.80;5.28;;;8.60;99.90;;;;;;5116831;27;20035;-71
2022/01/30 00:41:09;;;;;;;23.80;5.55;;;8.50;99.90;;;;;;5122449;27;20356;-71
2022/01/30 00:43:35;;;;;;;33.67;6.25;;;8.50;99.90;;;;;;5124591;27;20523;-71
2022/01/30 00:46:01;;;;;;;31.42;6.18;;;8.50;99.90;;;;;;5127851;27;20027;-71
2022/01/30 00:48:26;;;;;;;27.08;4.88;;;8.50;99.90;;;;;;5126243;27;20038;-71
2022/01/30 00:50:52;;;;;;;25.15;6.05;;;8.40;99.90;;;;;;5129040;27;20035;-71
2022/01/30 00:53:18;;;;;;;28.50;5.93;;;8.40;99.90;;;;;;5121699;27;20023;-71
2022/01/30 00:55:44;;;;;;;33.70;5.93;;;8.30;99.90;;;;;;5123165;27;20073;-71
2022/01/30 00:58:10;;;;;;;27.73;6.18;;;8.40;99.90;;;;;;5124525;27;20043;-70
2022/01/30 01:00:36;;;;;;;39.03;7.18;;;8.40;99.90;;;;;;5126979;27;20020;-70
2022/01/30 01:03:02;;;;;;;31.58;6.25;;;8.40;99.90;;;;;;5128366;27;20152;-71
2022/01/30 01:05:30;;;;;;;27.38;5.90;;;8.40;99.90;;;;;;5119027;27;20033;-70
2022/01/30 01:07:58;;;;;;;30.05;5.50;;;8.30;99.90;;;;;;5127621;27;20455;-71
2022/01/30 01:10:42;;;;;;;29.60;5.70;;;8.30;99.90;;;;;;5134590;27;20099;-71
2022/01/30 01:23:49;;;;;;;32.72;5.72;;;8.30;99.90;;;;;;5127917;27;20031;-71
2022/01/30 01:26:16;;;;;;;39.30;5.43;;;8.30;99.90;;;;;;5123275;27;20030;-72
2022/01/30 01:28:42;;;;;;;30.00;5.57;;;8.20;99.90;;;;;;5127866;27;20092;-72
2022/01/30 01:31:08;;;;;;;34.75;6.15;;;8.20;99.90;;;;;;5121314;27;20024;-73
2022/01/30 01:36:08;;;;;;;30.00;5.40;;;8.10;99.90;;;;;;5122847;27;20462;-73
2022/01/30 01:38:34;;;;;;;23.20;5.43;;;8.10;99.90;;;;;;5123662;27;20122;-73
2022/01/30 01:41:00;;;;;;;33.33;6.47;;;8.00;99.90;;;;;;5119759;27;20422;-71
2022/01/30 01:43:26;;;;;;;32.28;5.25;;;8.00;99.90;;;;;;5123022;27;20033;-72
2022/01/30 01:45:54;;;;;;;26.85;4.68;;;7.90;99.90;;;;;;5127188;27;20114;-71
2022/01/30 01:48:20;;;;;;;28.27;6.38;;;7.90;99.90;;;;;;5128200;27;20110;-71
2022/01/30 01:50:54;;;;;;;26.65;4.97;;;7.80;99.90;;;;;;5123131;27;20110;-72
2022/01/30 01:53:25;;;;;;;25.33;4.65;;;7.80;99.90;;;;;;5124853;27;20098;-71
2022/01/30 01:55:51;;;;;;;40.65;6.18;;;7.80;99.90;;;;;;5122581;27;20482;-71
2022/01/30 01:58:17;;;;;;;23.13;4.95;;;7.70;99.90;;;;;;5122034;27;20092;-71
2022/01/30 02:00:43;;;;;;;32.70;5.55;;;7.80;99.90;;;;;;5127630;27;20106;-72
2022/01/30 02:03:11;;;;;;;32.20;6.30;;;7.80;99.90;;;;;;5119867;27;20126;-71
2022/01/30 02:05:47;;;;;;;33.42;5.70;;;7.70;99.90;;;;;;5126152;27;20106;-71
2022/01/30 02:08:39;;;;;;;34.03;4.93;;;7.70;99.90;;;;;;5121158;27;20016;-71
2022/01/30 02:11:09;;;;;;;32.25;5.45;;;7.80;99.90;;;;;;5127782;27;20030;-73
2022/01/30 02:24:36;;;;;;;31.85;5.53;;;7.60;99.90;;;;;;5121579;27;20953;-72
2022/01/30 02:27:02;;;;;;;29.25;5.25;;;7.60;99.90;;;;;;5125923;27;20049;-73
2022/01/30 02:29:29;;;;;;;42.53;6.32;;;7.60;99.90;;;;;;5122127;27;20032;-72
2022/01/30 02:31:57;;;;;;;26.02;4.82;;;7.50;99.90;;;;;;5125015;27;20185;-71
2022/01/30 02:34:30;;;;;;;31.92;5.40;;;7.40;99.90;;;;;;5123183;27;20028;-72
2022/01/30 02:36:58;;;;;;;29.52;5.70;;;7.50;99.90;;;;;;5122216;27;20035;-71
2022/01/30 02:39:25;;;;;;;28.30;5.60;;;7.30;99.90;;;;;;5121062;27;20027;-72
2022/01/30 02:41:50;;;;;;;25.58;5.55;;;7.30;99.90;;;;;;5124494;27;20023;-71
2022/01/30 02:44:37;;;;;;;31.75;5.35;;;7.30;99.90;;;;;;5121246;27;20073;-73
2022/01/30 02:47:09;;;;;;;30.85;5.90;;;7.30;99.90;;;;;;5125400;27;20027;-71
2022/01/30 02:49:45;;;;;;;45.45;6.13;;;7.40;99.90;;;;;;5119646;27;20524;-73
2022/01/30 02:52:12;;;;;;;32.25;5.03;;;7.40;99.90;;;;;;5125364;27;20023;-73
2022/01/30 02:54:39;;;;;;;26.65;5.07;;;7.40;99.90;;;;;;5120466;27;20019;-71
2022/01/30 02:57:05;;;;;;;33.55;6.13;;;7.40;99.90;;;;;;5122223;27;20039;-73
2022/01/30 02:59:31;;;;;;;27.60;5.50;;;7.40;99.90;;;;;;5127839;27;20067;-73
2022/01/30 03:01:57;;;;;;;34.58;4.68;;;7.40;99.90;;;;;;5129747;27;20023;-73
2022/01/30 03:04:22;;;;;;;41.58;5.63;;;7.30;99.90;;;;;;5132787;27;20031;-73
2022/01/30 03:06:48;;;;;;;30.17;5.45;;;7.20;99.90;;;;;;5116882;27;20103;-72
2022/01/30 03:09:14;;;;;;;34.50;5.43;;;7.20;99.90;;;;;;5122745;27;20211;-73
2022/01/30 03:11:39;;;;;;;34.30;5.55;;;7.30;99.90;;;;;;5130220;27;20057;-73
2022/01/30 03:14:06;;;;;;;33.25;6.03;;;7.30;99.90;;;;;;5124301;27;20029;-74
2022/01/30 03:16:32;;;;;;;33.45;5.55;;;7.20;99.90;;;;;;5122303;27;20035;-78
2022/01/30 03:18:58;;;;;;;32.92;5.07;;;7.30;99.90;;;;;;5124312;27;20420;-74
2022/01/30 03:21:24;;;;;;;40.67;5.30;;;7.20;99.90;;;;;;5132467;27;20030;-73
2022/01/30 03:23:50;;;;;;;31.17;5.20;;;7.30;99.90;;;;;;5125568;27;20024;-73
2022/01/30 03:26:15;;;;;;;30.08;4.93;;;7.20;99.90;;;;;;5123260;27;20114;-72
2022/01/30 03:28:43;;;;;;;34.45;5.82;;;7.20;99.90;;;;;;5124875;27;20059;-74
2022/01/30 03:31:12;;;;;;;23.17;4.60;;;7.20;99.90;;;;;;5123329;27;20046;-73
2022/01/30 03:33:39;;;;;;;29.73;5.25;;;7.20;99.90;;;;;;5127925;27;20424;-73
2022/01/30 03:36:05;;;;;;;34.60;5.72;;;7.10;99.90;;;;;;5129540;27;20024;-74
2022/01/30 03:38:31;;;;;;;35.80;6.03;;;7.20;99.90;;;;;;5130410;27;20483;-72
2022/01/30 03:40:56;;;;;;;27.35;4.90;;;7.20;99.90;;;;;;5121017;27;20026;-76
2022/01/30 03:43:22;;;;;;;29.90;6.05;;;7.20;99.90;;;;;;5122937;27;20031;-74
2022/01/30 03:45:49;;;;;;;32.50;5.88;;;7.20;99.90;;;;;;5123486;27;20027;-74
2022/01/30 03:48:15;;;;;;;34.45;6.32;;;7.10;99.90;;;;;;5118909;27;20036;-73
2022/01/30 03:50:43;;;;;;;36.55;5.97;;;7.10;99.90;;;;;;5124672;27;20028;-76
2022/01/30 03:53:09;;;;;;;33.13;5.95;;;7.20;99.90;;;;;;5130658;27;20479;-74
2022/01/30 03:55:35;;;;;;;26.92;5.75;;;7.10;99.90;;;;;;5121890;27;20028;-77
2022/01/30 03:58:01;;;;;;;30.67;5.88;;;7.10;99.90;;;;;;5123323;27;20498;-73
2022/01/30 04:00:27;;;;;;;26.73;5.25;;;7.20;99.90;;;;;;5122747;27;20055;-73
2022/01/30 04:02:53;;;;;;;33.47;5.75;;;7.20;99.90;;;;;;5123018;27;20035;-73
2022/01/30 04:05:19;;;;;;;26.83;5.68;;;7.20;99.90;;;;;;5125130;27;20383;-73
2022/01/30 04:07:46;;;;;;;25.88;5.15;;;7.10;99.90;;;;;;5121787;27;20031;-73
2022/01/30 04:10:13;;;;;;;27.85;5.45;;;7.20;99.90;;;;;;5125967;27;20023;-75
2022/01/30 04:12:39;;;;;;;33.78;5.72;;;7.10;99.90;;;;;;5120355;27;20489;-73
2022/01/30 04:15:05;;;;;;;30.73;5.25;;;7.10;99.90;;;;;;5128653;27;20035;-77
2022/01/30 04:17:31;;;;;;;33.55;5.57;;;7.10;99.90;;;;;;5128961;27;20155;-72
2022/01/30 04:19:57;;;;;;;35.72;5.05;;;7.10;99.90;;;;;;5125488;27;20027;-72
2022/01/30 04:22:23;;;;;;;37.00;5.30;;;7.20;99.90;;;;;;5128618;27;20027;-72
2022/01/30 04:24:48;;;;;;;35.40;5.50;;;7.20;99.90;;;;;;5128262;27;20077;-73
2022/01/30 04:27:14;;;;;;;26.42;5.80;;;7.30;99.90;;;;;;5132026;27;20490;-73
2022/01/30 04:29:40;;;;;;;31.25;5.80;;;7.20;99.90;;;;;;5130833;27;20027;-72
2022/01/30 04:32:07;;;;;;;28.30;5.57;;;7.30;99.90;;;;;;5127931;27;20023;-73
2022/01/30 04:34:33;;;;;;;27.65;5.88;;;7.20;99.90;;;;;;5127860;27;20072;-72
2022/01/30 04:37:04;;;;;;;30.77;5.50;;;7.20;99.90;;;;;;5123420;27;20032;-74
2022/01/30 04:58:24;;;;;;;30.70;5.75;;;7.20;99.90;;;;;;5126334;27;20492;-73
2022/01/30 05:01:02;;;;;;;34.55;5.68;;;7.40;99.90;;;;;;5129325;27;20020;-74
2022/01/30 05:03:38;;;;;;;27.13;4.97;;;7.40;99.90;;;;;;5125268;27;20027;-72
2022/01/30 05:06:11;;;;;;;35.08;6.43;;;7.40;99.90;;;;;;5127374;27;20475;-73
2022/01/30 05:08:37;;;;;;;26.92;4.65;;;7.50;99.90;;;;;;5124364;27;20027;-72
2022/01/30 05:11:06;;;;;;;28.63;4.80;;;7.40;99.90;;;;;;5128595;27;20402;-72
2022/01/30 05:13:34;;;;;;;21.83;4.13;;;7.40;99.90;;;;;;5129005;27;20034;-75
2022/01/30 05:16:00;;;;;;;22.92;4.97;;;7.30;99.90;;;;;;5126922;27;20494;-73
2022/01/30 05:18:28;;;;;;;25.00;5.35;;;7.30;99.90;;;;;;5124676;27;20044;-72
2022/01/30 05:20:54;;;;;;;25.63;4.93;;;7.20;99.90;;;;;;5125097;27;20044;-72
2022/01/30 05:23:21;;;;;;;25.58;5.07;;;7.20;99.90;;;;;;5128256;27;20765;-71
2022/01/30 05:25:48;;;;;;;30.55;5.22;;;7.20;99.90;;;;;;5125123;27;20023;-75
2022/01/30 05:28:19;;;;;;;29.20;4.65;;;7.30;99.90;;;;;;5123088;27;20506;-73
2022/01/30 05:30:45;;;;;;;25.65;4.40;;;7.30;99.90;;;;;;5129340;27;20054;-74
2022/01/30 05:33:12;;;;;;;30.70;5.28;;;7.30;99.90;;;;;;5122511;27;20536;-72
2022/01/30 05:35:38;;;;;;;27.85;5.05;;;7.30;99.90;;;;;;5123661;27;20031;-73
2022/01/30 05:38:05;;;;;;;30.35;5.28;;;7.30;99.90;;;;;;5120496;27;20068;-73
2022/01/30 05:40:35;;;;;;;29.33;4.45;;;7.30;99.90;;;;;;5127657;27;20019;-73
2022/01/30 05:43:01;;;;;;;29.17;5.15;;;7.40;99.90;;;;;;5126043;27;20023;-73
2022/01/30 05:45:32;;;;;;;28.50;5.50;;;7.50;99.90;;;;;;5126901;27;20092;-73
2022/01/30 05:48:03;;;;;;;28.65;4.95;;;7.50;99.90;;;;;;5127089;27;20091;-74
2022/01/30 05:50:29;;;;;;;25.23;4.47;;;7.40;99.90;;;;;;5127643;27;20042;-74
2022/01/30 05:52:55;;;;;;;29.83;4.63;;;7.40;99.90;;;;;;5134078;27;20057;-73
2022/01/30 05:55:21;;;;;;;30.55;5.25;;;7.30;99.90;;;;;;5121460;27;20031;-74
2022/01/30 05:57:47;;;;;;;24.38;4.50;;;7.20;99.90;;;;;;5128228;27;20042;-72
2022/01/30 06:00:15;;;;;;;31.80;5.70;;;7.30;99.90;;;;;;5124105;27;20418;-73
2022/01/30 06:02:45;;;;;;;25.33;4.55;;;7.20;99.90;;;;;;5123499;27;20049;-72
2022/01/30 06:05:14;;;;;;;27.45;4.85;;;7.30;99.90;;;;;;5123975;27;20046;-72
2022/01/30 06:07:47;;;;;;;30.23;5.50;;;7.30;99.90;;;;;;5127706;27;20413;-72
2022/01/30 06:10:13;;;;;;;26.92;3.95;;;7.30;99.90;;;;;;5122307;27;20088;-73
2022/01/30 06:12:39;;;;;;;22.08;4.40;;;7.30;99.90;;;;;;5127267;27;20031;-72
2022/01/30 06:15:05;;;;;;;25.70;4.32;;;7.30;99.90;;;;;;5122568;27;20110;-74
2022/01/30 06:17:31;;;;;;;21.98;3.45;;;7.30;99.90;;;;;;5124441;27;20057;-73
2022/01/30 06:19:57;;;;;;;23.55;4.50;;;7.30;99.90;;;;;;5128152;27;20089;-71
2022/01/30 06:22:23;;;;;;;23.98;4.05;;;7.30;99.90;;;;;;5134432;27;20034;-73
2022/01/30 06:24:48;;;;;;;24.52;4.25;;;7.20;99.90;;;;;;5122306;27;20043;-73
2022/01/30 06:27:14;;;;;;;24.35;4.13;;;7.30;99.90;;;;;;5125836;27;20024;-72
2022/01/30 06:29:40;;;;;;;20.25;3.88;;;7.20;99.90;;;;;;5124188;27;20062;-73
2022/01/30 06:32:06;;;;;;;22.85;5.05;;;7.20;99.90;;;;;;5120480;27;20076;-73
2022/01/30 06:34:31;;;;;;;29.00;4.55;;;7.10;99.90;;;;;;5124540;27;20498;-74
2022/01/30 06:36:57;;;;;;;23.50;4.38;;;7.10;99.90;;;;;;5125789;27;20023;-73
2022/01/30 06:39:23;;;;;;;20.25;4.15;;;7.20;99.90;;;;;;5120812;27;20028;-73
2022/01/30 06:41:49;;;;;;;22.77;3.25;;;7.10;99.90;;;;;;5126464;27;20084;-72
2022/01/30 06:44:15;;;;;;;23.83;4.50;;;7.10;99.90;;;;;;5123704;27;20027;-73
2022/01/30 06:46:40;;;;;;;17.45;3.55;;;7.20;99.90;;;;;;5124547;27;20037;-73
2022/01/30 06:49:06;;;;;;;25.00;3.80;;;7.10;99.90;;;;;;5119500;27;20421;-72
2022/01/30 06:51:32;;;;;;;19.77;4.22;;;7.10;99.90;;;;;;5124656;27;20501;-73
2022/01/30 06:53:58;;;;;;;21.88;4.35;;;7.00;99.90;;;;;;5123656;27;20032;-73
2022/01/30 06:56:23;;;;;;;25.95;4.35;;;7.10;99.90;;;;;;5123314;27;20023;-72
2022/01/30 06:58:51;;;;;;;26.80;3.75;;;6.90;99.90;;;;;;5123646;27;20030;-73
2022/01/30 07:01:17;;;;;;;24.52;4.78;;;6.90;99.90;;;;;;5123104;27;20019;-73
2022/01/30 07:03:43;;;;;;;18.20;3.63;;;7.00;99.90;;;;;;5126118;27;20108;-72
2022/01/30 07:06:08;;;;;;;20.92;4.47;;;7.00;99.90;;;;;;5124798;27;20019;-72
2022/01/30 07:08:34;;;;;;;25.05;3.90;;;6.90;99.90;;;;;;5121512;27;20076;-72
2022/01/30 07:10:59;;;;;;;30.27;5.40;;;6.90;99.90;;;;;;5127986;27;20035;-72
2022/01/30 07:13:25;;;;;;;31.48;4.93;;;6.80;99.90;;;;;;5122754;27;20034;-74
2022/01/30 07:15:51;;;;;;;18.48;3.05;;;6.90;99.90;;;;;;5122259;27;20035;-72
2022/01/30 07:18:16;;;;;;;16.92;3.65;;;6.90;99.90;;;;;;5118767;27;20039;-73
2022/01/30 07:20:42;;;;;;;29.25;4.43;;;6.90;99.90;;;;;;5123723;27;20080;-73
2022/01/30 07:23:07;;;;;;;34.72;5.00;;;6.90;99.90;;;;;;5121003;27;20047;-72
2022/01/30 07:25:33;;;;;;;24.48;4.60;;;6.90;99.90;;;;;;5123733;27;20479;-73
2022/01/30 07:27:59;;;;;;;25.25;4.07;;;7.00;99.90;;;;;;5125050;27;20460;-72
2022/01/30 07:30:24;;;;;;;24.27;4.38;;;7.00;99.90;;;;;;5122166;27;20085;-72
2022/01/30 07:32:50;;;;;;;20.35;4.65;;;6.90;99.90;;;;;;5122826;27;20077;-72
2022/01/30 07:35:17;;;;;;;25.65;4.00;;;6.90;99.90;;;;;;5122384;27;20125;-72
2022/01/30 07:37:43;;;;;;;26.42;4.45;;;6.80;99.90;;;;;;5127006;27;20035;-73
2022/01/30 07:40:09;;;;;;;32.90;4.60;;;6.90;99.90;;;;;;5119210;27;20031;-73
2022/01/30 07:42:35;;;;;;;16.83;3.78;;;6.80;99.90;;;;;;5122851;27;20123;-75
2022/01/30 07:45:01;;;;;;;27.40;4.45;;;6.80;99.90;;;;;;5127393;27;20062;-73
2022/01/30 07:47:26;;;;;;;24.50;4.35;;;6.80;99.90;;;;;;5129735;27;20035;-72
2022/01/30 07:49:52;;;;;;;25.80;3.55;;;6.80;99.90;;;;;;5126563;27;20035;-72
2022/01/30 07:52:19;;;;;;;24.08;4.75;;;6.80;99.90;;;;;;5119759;27;20443;-72
2022/01/30 07:54:45;;;;;;;23.08;4.75;;;6.80;99.90;;;;;;5121934;27;20502;-72
2022/01/30 07:57:11;;;;;;;27.08;5.28;;;6.90;99.90;;;;;;5123616;27;20031;-72
2022/01/30 07:59:36;;;;;;;27.02;6.50;;;6.90;99.90;;;;;;5125908;27;20027;-72
2022/01/30 08:02:02;;;;;;;25.08;4.82;;;6.90;99.90;;;;;;5116975;27;20019;-72
2022/01/30 08:04:28;;;;;;;26.17;5.20;;;6.90;99.90;;;;;;5122837;27;20110;-74
2022/01/30 08:06:55;;;;;;;24.80;4.35;;;6.90;99.90;;;;;;5120376;27;20127;-72
2022/01/30 08:09:20;;;;;;;23.20;4.18;;;7.00;99.90;;;;;;5126550;27;20145;-72
2022/01/30 08:11:46;;;;;;;29.67;5.10;;;7.00;99.90;;;;;;5128157;27;20456;-74
2022/01/30 08:14:12;;;;;;;25.98;4.22;;;6.90;99.90;;;;;;5125376;27;20027;-73
2022/01/30 08:16:39;;;;;;;21.15;4.00;;;6.90;99.90;;;;;;5121341;27;20102;-77
2022/01/30 08:19:04;;;;;;;27.35;4.60;;;6.90;99.90;;;;;;5124187;27;20396;-79
2022/01/30 08:21:31;;;;;;;31.88;5.63;;;6.80;99.90;;;;;;5118454;27;20012;-75
2022/01/30 08:23:56;;;;;;;26.92;5.38;;;6.80;99.90;;;;;;5123221;27;20403;-75
2022/01/30 08:26:22;;;;;;;34.47;4.95;;;6.90;99.90;;;;;;5122819;27;20024;-76
2022/01/30 08:28:48;;;;;;;19.15;4.78;;;7.00;99.90;;;;;;5118276;27;20046;-72
2022/01/30 08:31:13;;;;;;;28.27;4.22;;;7.10;99.90;;;;;;5115096;27;20023;-72
2022/01/30 08:33:39;;;;;;;24.35;4.63;;;7.10;99.90;;;;;;5124246;27;20032;-75
2022/01/30 08:36:05;;;;;;;27.58;5.13;;;7.20;99.90;;;;;;5125148;27;20124;-71
2022/01/30 08:38:31;;;;;;;19.25;4.32;;;7.10;99.90;;;;;;5122727;27;20484;-83
2022/01/30 08:40:56;;;;;;;23.17;4.88;;;7.10;99.90;;;;;;5121920;27;20020;-83
2022/01/30 08:43:22;;;;;;;31.42;5.80;;;7.20;99.90;;;;;;5117718;27;20044;-80
2022/01/30 08:45:52;;;;;;;24.25;4.90;;;7.30;99.90;;;;;;5121828;27;20020;-84
2022/01/30 08:48:19;;;;;;;22.15;5.30;;;7.40;99.90;;;;;;5121559;27;20040;-86
2022/01/30 08:50:45;;;;;;;23.25;4.25;;;7.40;99.90;;;;;;5132824;27;20031;-84
2022/01/30 08:53:11;;;;;;;26.83;3.95;;;7.40;99.90;;;;;;5117389;27;20386;-84
2022/01/30 08:55:37;;;;;;;30.02;5.20;;;7.40;99.90;;;;;;5129152;27;20090;-80
2022/01/30 08:58:09;;;;;;;29.75;5.63;;;7.40;99.90;;;;;;5118272;27;20144;-85
2022/01/30 09:00:37;;;;;;;24.92;4.78;;;7.50;99.90;;;;;;5128422;27;20019;-82
2022/01/30 09:03:04;;;;;;;22.15;4.00;;;7.60;99.90;;;;;;5123077;27;20059;-89
2022/01/30 09:05:31;;;;;;;26.65;5.32;;;7.60;99.90;;;;;;5123218;27;20075;-83
2022/01/30 09:07:58;;;;;;;25.15;4.43;;;7.70;99.90;;;;;;5123190;27;20522;-76
2022/01/30 09:10:23;;;;;;;22.77;4.15;;;7.80;99.90;;;;;;5127989;27;20024;-82
2022/01/30 09:12:49;;;;;;;29.95;5.03;;;7.80;99.90;;;;;;5122192;27;20029;-80
2022/01/30 09:15:16;;;;;;;26.00;4.63;;;7.90;99.90;;;;;;5125573;27;20614;-78
2022/01/30 09:17:43;;;;;;;25.75;4.15;;;8.00;99.90;;;;;;5122703;27;20391;-78
2022/01/30 09:20:09;;;;;;;23.67;4.53;;;7.90;99.90;;;;;;5128498;27;20029;-80
2022/01/30 09:22:35;;;;;;;29.85;5.00;;;7.90;99.90;;;;;;5129428;27;20030;-78
2022/01/30 09:25:02;;;;;;;20.25;4.13;;;8.10;99.90;;;;;;5118279;27;20028;-78
2022/01/30 09:27:28;;;;;;;24.58;4.75;;;8.00;99.90;;;;;;5133935;27;20020;-79
2022/01/30 09:29:55;;;;;;;26.80;4.82;;;8.10;99.90;;;;;;5129843;27;20928;-80
2022/01/30 09:32:20;;;;;;;29.77;5.25;;;8.10;99.90;;;;;;5133193;27;20027;-78
2022/01/30 09:34:46;;;;;;;24.00;4.15;;;8.20;99.90;;;;;;5120623;27;20030;-82
2022/01/30 09:37:12;;;;;;;20.45;3.97;;;8.30;99.90;;;;;;5131500;27;20036;-79
2022/01/30 09:39:38;;;;;;;28.70;4.55;;;8.50;99.90;;;;;;5129147;27;20024;-81
2022/01/30 09:42:04;;;;;;;27.77;5.00;;;8.70;99.90;;;;;;5125842;27;20027;-78
2022/01/30 09:44:30;;;;;;;27.92;5.43;;;8.60;99.90;;;;;;5125914;27;20038;-73
2022/01/30 09:46:56;;;;;;;28.88;5.47;;;8.60;99.90;;;;;;5129294;27;20487;-74
2022/01/30 09:49:26;;;;;;;27.38;4.82;;;8.60;99.90;;;;;;5127698;27;20035;-76
2022/01/30 09:51:53;;;;;;;26.30;4.57;;;8.70;99.90;;;;;;5121786;27;20050;-72
2022/01/30 09:54:19;;;;;;;24.77;4.60;;;8.60;99.90;;;;;;5131886;27;20027;-73
2022/01/30 09:56:45;;;;;;;22.13;4.38;;;8.60;99.90;;;;;;5129581;27;20502;-73
2022/01/30 09:59:10;;;;;;;28.45;5.18;;;8.70;99.90;;;;;;5131652;27;20034;-73
2022/01/30 10:01:37;;;;;;;25.05;4.97;;;8.70;99.90;;;;;;5131785;27;20023;-72
2022/01/30 10:04:04;;;;;;;24.52;4.50;;;8.70;99.90;;;;;;5126333;27;20027;-73
2022/01/30 10:06:37;;;;;;;23.05;4.72;;;8.70;99.90;;;;;;5129918;27;20378;-72
2022/01/30 10:09:26;;;;;;;30.25;4.95;;;8.80;99.90;;;;;;5132210;27;20023;-74
2022/01/30 10:12:01;;;;;;;30.55;6.20;;;8.70;99.90;;;;;;5129590;27;20108;-72
2022/01/30 10:14:27;;;;;;;34.40;5.10;;;8.70;99.90;;;;;;5124697;27;20031;-72
2022/01/30 10:16:53;;;;;;;20.63;4.57;;;8.80;99.90;;;;;;5120424;27;20387;-73
2022/01/30 10:19:21;;;;;;;30.15;5.70;;;8.90;99.90;;;;;;5131701;27;20497;-73
2022/01/30 10:21:49;;;;;;;23.48;4.97;;;8.90;99.90;;;;;;5123868;27;20027;-74
2022/01/30 10:24:25;;;;;;;33.33;4.82;;;9.00;99.90;;;;;;5119424;27;20032;-73
2022/01/30 10:26:53;;;;;;;27.05;4.55;;;9.00;99.90;;;;;;5129307;27;20027;-73
2022/01/30 10:29:23;;;;;;;24.35;5.10;;;9.00;99.90;;;;;;5127258;27;20471;-73
2022/01/30 10:32:08;;;;;;;26.60;4.95;;;9.10;99.90;;;;;;5126645;27;20379;-73
2022/01/30 10:34:38;;;;;;;21.65;3.80;;;9.00;99.90;;;;;;5125069;27;20030;-73
2022/01/30 10:37:22;;;;;;;25.40;4.32;;;9.00;99.90;;;;;;5120841;27;20053;-73
2022/01/30 10:40:05;;;;;;;25.27;4.50;;;9.00;99.90;;;;;;5117357;27;20019;-73
2022/01/30 10:42:43;;;;;;;24.02;4.13;;;9.10;99.90;;;;;;5117796;27;20035;-79
2022/01/30 10:45:18;;;;;;;29.33;5.35;;;9.10;99.90;;;;;;5123150;27;20027;-80
2022/01/30 10:47:44;;;;;;;25.23;4.97;;;9.10;99.90;;;;;;5121998;27;20463;-77
2022/01/30 10:50:16;;;;;;;26.00;5.18;;;9.00;99.90;;;;;;5117059;27;20015;-78
2022/01/30 10:52:59;;;;;;;25.85;4.43;;;9.00;99.90;;;;;;5126161;27;20021;-78
2022/01/30 10:55:44;;;;;;;33.20;5.35;;;9.10;99.90;;;;;;5126506;27;20024;-76
2022/01/30 10:58:11;;;;;;;26.30;4.65;;;9.20;99.90;;;;;;5119126;27;20118;-74
2022/01/30 11:00:46;;;;;;;25.40;4.32;;;9.30;99.90;;;;;;5122520;27;20086;-72
2022/01/30 11:03:44;;;;;;;26.75;4.72;;;9.50;99.90;;;;;;5116809;27;20799;-75
2022/01/30 11:06:13;;;;;;;25.17;4.10;;;9.50;99.90;;;;;;5129795;27;20045;-84
2022/01/30 11:08:42;;;;;;;30.30;4.82;;;9.40;99.90;;;;;;5122078;27;20388;-73
2022/01/30 11:11:56;;;;;;;27.77;4.55;;;9.40;99.90;;;;;;5122254;27;20114;-73
2022/01/30 11:19:19;;;;;;;25.67;5.15;;;9.30;99.90;;;;;;5123851;27;20186;-73
2022/01/30 11:21:48;;;;;;;27.20;5.28;;;9.40;99.90;;;;;;5115343;27;20019;-74
2022/01/30 11:24:15;;;;;;;30.05;5.40;;;9.40;99.90;;;;;;5120620;27;20024;-75
2022/01/30 11:26:43;;;;;;;26.77;4.63;;;9.50;99.90;;;;;;5125505;27;20023;-73
2022/01/30 11:29:10;;;;;;;24.45;5.40;;;9.50;99.90;;;;;;5129666;27;20019;-74
2022/01/30 11:31:36;;;;;;;24.92;4.75;;;9.50;99.90;;;;;;5126157;27;20023;-75
2022/01/30 11:34:03;;;;;;;29.77;4.60;;;9.60;99.90;;;;;;5122963;27;20114;-73
2022/01/30 11:36:30;;;;;;;23.35;4.95;;;9.60;99.90;;;;;;5126434;27;20379;-74
2022/01/30 11:38:56;;;;;;;26.15;4.75;;;9.70;99.90;;;;;;5121726;27;20042;-78
2022/01/30 11:41:22;;;;;;;32.53;5.72;;;9.60;99.90;;;;;;5123242;27;20015;-75
2022/01/30 11:44:18;;;;;;;31.13;5.15;;;9.50;99.90;;;;;;5116317;27;20479;-77
2022/01/30 11:46:57;;;;;;;28.17;5.28;;;9.50;99.90;;;;;;5126871;27;20079;-74
2022/01/30 11:49:36;;;;;;;28.02;5.32;;;9.50;99.90;;;;;;5124520;27;20039;-75
2022/01/30 11:52:02;;;;;;;28.17;5.35;;;9.50;99.90;;;;;;5128096;27;20439;-73
2022/01/30 11:54:42;;;;;;;27.08;4.88;;;9.50;99.90;;;;;;5124219;27;20055;-73
2022/01/30 11:57:22;;;;;;;27.98;5.05;;;9.60;99.90;;;;;;5125971;27;20392;-73
2022/01/30 11:59:50;;;;;;;25.88;5.38;;;9.60;99.90;;;;;;5118125;27;20498;-74
2022/01/30 12:02:36;;;;;;;22.23;4.70;;;9.60;99.90;;;;;;5120958;27;20030;-74
2022/01/30 12:05:04;;;;;;;20.35;4.65;;;9.70;99.90;;;;;;5121134;27;20043;-73
2022/01/30 12:07:42;;;;;;;29.00;5.53;;;9.70;99.90;;;;;;5123933;27;20072;-73
2022/01/30 12:10:30;;;;;;;31.58;4.78;;;9.70;99.90;;;;;;5116352;27;20024;-74
2022/01/30 12:12:56;;;;;;;28.17;4.90;;;9.70;99.90;;;;;;5121728;27;20024;-78
2022/01/30 12:15:42;;;;;;;22.20;5.18;;;9.90;99.90;;;;;;5125564;27;20019;-75
2022/01/30 12:18:08;;;;;;;22.70;5.25;;;10.00;99.90;;;;;;5119749;27;20043;-73
2022/01/30 12:20:59;;;;;;;27.70;4.20;;;9.90;99.90;;;;;;5127825;27;20102;-74
2022/01/30 12:23:34;;;;;;;33.35;5.78;;;9.90;99.90;;;;;;5127221;27;20032;-72
2022/01/30 12:26:14;;;;;;;25.33;4.95;;;9.90;99.90;;;;;;5120684;27;20020;-76
2022/01/30 12:28:53;;;;;;;23.67;5.07;;;9.90;99.90;;;;;;5123436;27;20023;-74
2022/01/30 12:31:36;;;;;;;24.23;5.22;;;9.90;99.90;;;;;;5115047;27;20050;-74
2022/01/30 12:34:02;;;;;;;24.83;4.88;;;9.90;99.90;;;;;;5126749;27;20122;-75
2022/01/30 12:36:30;;;;;;;22.92;4.60;;;9.80;99.90;;;;;;5129290;27;20019;-73
2022/01/30 12:39:02;;;;;;;26.85;4.47;;;9.80;99.90;;;;;;5131826;27;20418;-73
2022/01/30 12:41:29;;;;;;;27.87;4.53;;;9.80;99.90;;;;;;5122356;27;20542;-72
2022/01/30 12:44:01;;;;;;;27.30;4.97;;;9.80;99.90;;;;;;5128541;27;20066;-72
2022/01/30 12:46:30;;;;;;;23.85;4.65;;;9.80;99.90;;;;;;5123956;27;20027;-73
2022/01/30 12:49:26;;;;;;;30.23;4.75;;;9.80;99.90;;;;;;5128956;27;20555;-73
2022/01/30 12:52:03;;;;;;;26.83;4.78;;;9.70;99.90;;;;;;5126783;27;20114;-72
2022/01/30 12:54:40;;;;;;;26.15;5.28;;;9.70;99.90;;;;;;5120357;27;20023;-72
2022/01/30 12:57:08;;;;;;;25.75;4.97;;;9.60;99.90;;;;;;5122198;27;20027;-73
2022/01/30 12:59:34;;;;;;;34.35;6.00;;;9.60;99.90;;;;;;5128258;27;20034;-73
2022/01/30 13:02:12;;;;;;;31.08;5.47;;;9.60;99.90;;;;;;5129503;27;20494;-73
2022/01/30 13:04:37;;;;;;;26.13;5.07;;;9.60;99.90;;;;;;5137198;27;20023;-73
2022/01/30 13:07:03;;;;;;;26.88;4.93;;;9.60;99.90;;;;;;5126008;27;20685;-73
2022/01/30 13:09:31;;;;;;;28.17;4.88;;;9.70;99.90;;;;;;5125044;27;20031;-72
2022/01/30 13:12:11;;;;;;;25.55;5.25;;;9.60;99.90;;;;;;5125996;27;20388;-73
2022/01/30 13:14:39;;;;;;;24.48;4.10;;;9.60;99.90;;;;;;5124842;27;20020;-73
2022/01/30 13:17:06;;;;;;;27.05;4.40;;;9.70;99.90;;;;;;5123930;27;20502;-73
2022/01/30 13:19:37;;;;;;;18.15;4.05;;;9.70;99.90;;;;;;5121308;27;20027;-73
2022/01/30 13:22:06;;;;;;;21.97;3.53;;;9.70;99.90;;;;;;5123337;27;20372;-73
2022/01/30 13:24:32;;;;;;;23.50;4.10;;;9.80;99.90;;;;;;5128957;27;20048;-72
2022/01/30 13:27:06;;;;;;;20.02;4.32;;;9.90;99.90;;;;;;5129621;27;20027;-72
2022/01/30 13:29:35;;;;;;;21.63;3.88;;;9.80;99.90;;;;;;5123504;27;20051;-73
2022/01/30 13:32:12;;;;;;;23.45;4.60;;;10.00;99.90;;;;;;5120970;27;20455;-73
2022/01/30 13:34:41;;;;;;;24.38;5.25;;;9.90;99.90;;;;;;5133553;27;20498;-73
2022/01/30 13:37:16;;;;;;;23.30;5.13;;;9.90;99.90;;;;;;5125723;27;20047;-81
2022/01/30 13:39:50;;;;;;;21.98;5.10;;;9.90;99.90;;;;;;5121536;27;20027;-85
2022/01/30 13:46:54;;;;;;;22.00;4.47;;;9.90;99.90;;;;;;5135416;27;20027;-84
2022/01/30 13:47:56;;;;;;;24.35;4.30;;;9.90;99.90;;;;;;5133764;27;20039;-81